createdAt,value
2022-11-12T00:00:15.731Z,2.60
2022-11-12T00:03:00.813Z,2.50
2022-11-12T00:05:46.714Z,2.70
2022-11-12T00:08:31.722Z,2.90
2022-11-12T00:11:17.108Z,2.90
2022-11-12T00:14:02.217Z,2.90
2022-11-12T00:16:47.278Z,2.70
2022-11-12T00:19:32.254Z,2.70
2022-11-12T00:22:17.548Z,2.80
2022-11-12T00:25:03.610Z,2.90
2022-11-12T00:27:51.323Z,3.00
2022-11-12T00:30:40.428Z,3.00
2022-11-12T00:33:25.829Z,3.10
2022-11-12T00:36:11.052Z,3.20
2022-11-12T00:38:56.343Z,3.10
2022-11-12T00:41:41.481Z,3.00
2022-11-12T00:44:27.558Z,2.80
2022-11-12T00:47:12.629Z,3.00
2022-11-12T00:49:57.820Z,3.10
2022-11-12T00:52:43.323Z,3.00
2022-11-12T00:55:28.313Z,2.80
2022-11-12T00:58:19.401Z,2.90
2022-11-12T01:01:09.097Z,2.90
2022-11-12T01:03:54.295Z,2.70
2022-11-12T01:06:40.634Z,2.60
2022-11-12T01:09:25.707Z,2.50
2022-11-12T01:12:11.236Z,2.40
2022-11-12T01:14:56.851Z,2.30
2022-11-12T01:17:41.791Z,2.30
2022-11-12T01:20:27.136Z,2.40
2022-11-12T01:23:12.508Z,2.50
2022-11-12T01:25:57.828Z,2.70
2022-11-12T01:28:43.376Z,2.60
2022-11-12T01:31:30.081Z,2.60
2022-11-12T01:34:18.449Z,2.50
2022-11-12T01:37:03.510Z,2.40
2022-11-12T01:39:51.456Z,2.30
2022-11-12T01:42:38.301Z,2.60
2022-11-12T01:45:23.613Z,2.40
2022-11-12T01:48:25.607Z,2.50
2022-11-12T01:51:14.396Z,2.50
2022-11-12T01:54:02.238Z,2.40
2022-11-12T01:56:55.925Z,2.40
2022-11-12T01:59:43.225Z,2.40
2022-11-12T02:02:28.704Z,2.30
2022-11-12T02:05:14.854Z,2.30
2022-11-12T02:08:00.534Z,2.20
2022-11-12T02:11:10.381Z,2.20
2022-11-12T02:13:58.434Z,2.10
2022-11-12T02:16:44.716Z,2.40
2022-11-12T02:19:29.872Z,2.40
2022-11-12T02:22:15.316Z,2.30
2022-11-12T02:25:00.442Z,2.10
2022-11-12T02:27:45.877Z,2.20
2022-11-12T02:30:32.726Z,2.20
2022-11-12T02:33:17.929Z,2.10
2022-11-12T02:36:03.045Z,1.90
2022-11-12T02:38:48.009Z,1.90
2022-11-12T02:41:33.100Z,1.80
2022-11-12T02:44:18.225Z,1.80
2022-11-12T02:47:03.292Z,1.70
2022-11-12T02:49:49.019Z,1.60
2022-11-12T02:52:34.808Z,1.60
2022-11-12T02:55:19.893Z,1.70
2022-11-12T02:58:05.227Z,1.70
2022-11-12T03:00:50.899Z,1.70
2022-11-12T03:03:36.031Z,1.70
2022-11-12T03:06:21.425Z,1.60
2022-11-12T03:09:06.446Z,1.60
2022-11-12T03:11:51.547Z,1.70
2022-11-12T03:14:36.593Z,1.60
2022-11-12T03:17:21.846Z,1.60
2022-11-12T03:20:06.988Z,1.80
2022-11-12T03:22:56.285Z,1.80
2022-11-12T03:25:41.618Z,1.90
2022-11-12T03:28:27.300Z,2.10
2022-11-12T03:31:15.757Z,2.10
2022-11-12T03:34:00.962Z,2.00
2022-11-12T03:36:46.760Z,1.90
2022-11-12T03:39:31.865Z,1.70
2022-11-12T03:42:16.846Z,1.70
2022-11-12T03:45:02.054Z,1.60
2022-11-12T03:47:51.983Z,1.60
2022-11-12T03:50:37.146Z,1.60
2022-11-12T03:53:22.238Z,1.80
2022-11-12T03:56:07.421Z,1.70
2022-11-12T03:58:52.489Z,1.90
2022-11-12T04:01:37.724Z,1.90
2022-11-12T04:04:22.801Z,1.80
2022-11-12T04:07:27.040Z,1.60
2022-11-12T04:10:18.474Z,1.90
2022-11-12T04:13:22.229Z,2.00
2022-11-12T04:16:27.899Z,1.70
2022-11-12T04:19:32.394Z,2.00
2022-11-12T04:22:17.813Z,2.00
2022-11-12T04:25:21.411Z,1.80
2022-11-12T04:28:06.741Z,2.00
2022-11-12T04:30:52.089Z,1.90
2022-11-12T04:33:37.295Z,2.00
2022-11-12T04:36:22.358Z,1.90
2022-11-12T04:39:07.572Z,1.80
2022-11-12T04:42:11.311Z,1.60
2022-11-12T04:45:03.820Z,1.50
2022-11-12T04:47:49.313Z,1.40
2022-11-12T04:50:34.557Z,1.30
2022-11-12T04:53:19.929Z,1.40
2022-11-12T04:56:05.007Z,1.30
2022-11-12T04:58:50.036Z,1.30
2022-11-12T05:01:35.491Z,1.50
2022-11-12T05:04:20.483Z,1.40
2022-11-12T05:07:05.619Z,1.30
2022-11-12T05:09:50.452Z,1.30
2022-11-12T05:12:36.186Z,1.30
2022-11-12T05:15:21.767Z,1.20
2022-11-12T05:18:07.030Z,1.10
2022-11-12T05:20:52.849Z,1.00
2022-11-12T05:23:38.159Z,1.10
2022-11-12T05:26:23.468Z,1.40
2022-11-12T05:29:09.182Z,1.20
2022-11-12T05:31:54.606Z,1.10
2022-11-12T05:34:40.421Z,1.10
2022-11-12T05:37:25.417Z,1.20
2022-11-12T05:40:10.531Z,1.40
2022-11-12T05:42:55.582Z,1.50
2022-11-12T05:45:43.958Z,1.70
2022-11-12T05:48:30.005Z,1.40
2022-11-12T05:51:15.712Z,1.30
2022-11-12T05:54:01.005Z,1.30
2022-11-12T05:56:46.694Z,1.20
2022-11-12T05:59:31.926Z,1.20
2022-11-12T06:02:17.370Z,1.20
2022-11-12T06:05:02.341Z,1.20
2022-11-12T06:07:49.557Z,1.30
2022-11-12T06:10:34.921Z,1.20
2022-11-12T06:13:21.519Z,1.30
2022-11-12T06:16:07.085Z,1.40
2022-11-12T06:18:52.339Z,1.50
2022-11-12T06:21:37.686Z,1.60
2022-11-12T06:24:22.886Z,1.40
2022-11-12T06:27:07.977Z,1.50
2022-11-12T06:29:53.074Z,1.70
2022-11-12T06:32:38.060Z,2.00
2022-11-12T06:35:23.205Z,2.10
2022-11-12T06:38:08.497Z,2.00
2022-11-12T06:40:53.682Z,2.10
2022-11-12T06:43:39.692Z,2.30
2022-11-12T06:46:24.722Z,2.40
2022-11-12T06:49:09.933Z,2.60
2022-11-12T06:51:55.019Z,2.70
2022-11-12T06:54:40.083Z,2.70
2022-11-12T06:57:25.515Z,2.70
2022-11-12T07:00:11.718Z,2.80
2022-11-12T07:02:56.990Z,2.90
2022-11-12T07:05:41.909Z,2.90
2022-11-12T07:08:27.608Z,2.70
2022-11-12T07:11:13.536Z,2.60
2022-11-12T07:13:58.865Z,2.70
2022-11-12T07:16:43.982Z,2.90
2022-11-12T07:19:28.948Z,3.10
2022-11-12T07:22:14.291Z,3.20
2022-11-12T07:24:59.249Z,3.20
2022-11-12T07:27:44.581Z,3.40
2022-11-12T07:30:29.629Z,3.40
2022-11-12T07:33:17.641Z,3.60
2022-11-12T07:36:07.087Z,3.60
2022-11-12T07:38:54.773Z,3.80
2022-11-12T07:41:40.129Z,3.80
2022-11-12T07:44:25.313Z,3.80
2022-11-12T07:47:10.517Z,3.70
2022-11-12T07:49:55.524Z,3.80
2022-11-12T07:52:40.520Z,3.70
2022-11-12T07:55:25.613Z,3.90
2022-11-12T07:58:10.886Z,4.10
2022-11-12T08:00:55.869Z,4.00
2022-11-12T08:03:40.937Z,4.20
2022-11-12T08:06:26.788Z,4.10
2022-11-12T08:09:11.681Z,4.30
2022-11-12T08:11:56.628Z,4.40
2022-11-12T08:14:41.649Z,4.40
2022-11-12T08:17:26.910Z,4.50
2022-11-12T08:20:12.923Z,4.40
2022-11-12T08:23:01.138Z,4.40
2022-11-12T08:25:46.233Z,4.40
2022-11-12T08:28:32.137Z,4.50
2022-11-12T08:31:19.296Z,4.60
2022-11-12T08:34:11.963Z,4.70
2022-11-12T08:36:57.550Z,4.70
2022-11-12T08:39:42.648Z,4.90
2022-11-12T08:42:27.725Z,5.00
2022-11-12T08:45:12.908Z,5.10
2022-11-12T08:48:24.560Z,5.30
2022-11-12T08:51:09.845Z,5.50
2022-11-12T08:53:58.132Z,5.70
2022-11-12T08:56:43.342Z,6.00
2022-11-12T08:59:28.293Z,6.00
2022-11-12T09:02:13.793Z,6.10
2022-11-12T09:04:59.148Z,6.00
2022-11-12T09:07:49.874Z,6.20
2022-11-12T09:10:36.600Z,6.20
2022-11-12T09:13:21.797Z,6.40
2022-11-12T09:16:07.309Z,6.50
2022-11-12T09:18:52.559Z,6.70
2022-11-12T09:21:37.476Z,6.80
2022-11-12T09:24:22.596Z,6.90
2022-11-12T09:27:07.956Z,7.10
2022-11-12T09:29:53.215Z,7.30
2022-11-12T09:32:38.285Z,7.50
2022-11-12T09:35:23.281Z,7.50
2022-11-12T09:38:08.624Z,7.60
2022-11-12T09:41:15.978Z,7.90
2022-11-12T09:44:08.436Z,8.20
2022-11-12T09:47:04.703Z,8.30
2022-11-12T09:50:01.805Z,8.50
2022-11-12T09:52:48.537Z,8.50
2022-11-12T09:55:36.105Z,8.40
2022-11-12T09:58:21.305Z,8.60
2022-11-12T10:01:16.933Z,8.90
2022-11-12T10:04:02.220Z,9.10
2022-11-12T10:06:55.024Z,9.30
2022-11-12T10:09:52.724Z,9.40
2022-11-12T10:12:37.866Z,9.50
2022-11-12T10:16:17.665Z,9.70
2022-11-12T10:19:10.062Z,9.70
2022-11-12T10:22:19.501Z,9.90
2022-11-12T10:25:12.482Z,10.10
2022-11-12T10:27:57.832Z,10.30
2022-11-12T10:30:43.569Z,10.50
2022-11-12T10:33:29.842Z,10.80
2022-11-12T10:36:33.297Z,10.90
2022-11-12T10:39:36.009Z,11.10
2022-11-12T10:42:22.144Z,11.10
2022-11-12T10:45:21.634Z,11.20
2022-11-12T10:48:28.499Z,11.40
2022-11-12T10:51:24.379Z,11.50
2022-11-12T10:54:20.258Z,11.50
2022-11-12T10:57:17.614Z,11.50
2022-11-12T11:00:07.673Z,11.40
2022-11-12T11:02:53.970Z,11.50
2022-11-12T11:05:45.498Z,11.60
2022-11-12T11:08:36.209Z,11.50
2022-11-12T11:11:31.321Z,11.30
2022-11-12T11:14:22.580Z,11.30
2022-11-12T11:17:15.461Z,11.30
2022-11-12T11:20:00.972Z,11.30
2022-11-12T11:22:47.549Z,11.40
2022-11-12T11:25:35.612Z,11.50
2022-11-12T11:28:25.423Z,11.60
2022-11-12T11:31:29.574Z,11.60
2022-11-12T11:34:20.856Z,11.80
2022-11-12T11:37:26.832Z,11.90
2022-11-12T11:40:12.042Z,12.10
2022-11-12T11:43:12.195Z,12.20
2022-11-12T11:46:14.726Z,12.30
2022-11-12T11:49:22.316Z,12.30
2022-11-12T11:52:22.818Z,12.50
2022-11-12T11:55:23.277Z,12.80
2022-11-12T11:58:27.393Z,13.00
2022-11-12T12:01:18.932Z,13.10
2022-11-12T12:04:19.210Z,13.20
2022-11-12T12:07:09.146Z,13.20
2022-11-12T12:10:07.805Z,13.40
2022-11-12T12:13:04.689Z,13.50
2022-11-12T12:16:08.175Z,13.70
2022-11-12T12:18:58.829Z,13.80
2022-11-12T12:21:46.180Z,13.90
2022-11-12T12:24:50.108Z,13.90
2022-11-12T12:27:37.974Z,13.90
2022-11-12T12:30:26.282Z,13.90
2022-11-12T12:33:20.460Z,13.90
2022-11-12T12:36:08.551Z,13.90
2022-11-12T12:39:02.953Z,14.00
2022-11-12T12:41:56.597Z,14.00
2022-11-12T12:45:01.128Z,14.00
2022-11-12T12:47:47.167Z,14.10
2022-11-12T12:50:33.390Z,14.10
2022-11-12T12:53:18.802Z,14.10
2022-11-12T12:56:27.040Z,14.30
2022-11-12T12:59:22.528Z,14.30
2022-11-12T13:02:24.300Z,14.40
2022-11-12T13:05:24.841Z,14.50
2022-11-12T13:08:14.421Z,14.70
2022-11-12T13:10:59.840Z,14.70
2022-11-12T13:13:45.070Z,14.70
2022-11-12T13:16:53.380Z,14.70
2022-11-12T13:19:44.509Z,14.60
2022-11-12T13:22:33.665Z,14.60
2022-11-12T13:25:18.588Z,14.70
2022-11-12T13:28:05.039Z,14.70
2022-11-12T13:30:50.434Z,14.70
2022-11-12T13:33:36.728Z,14.70
2022-11-12T13:36:26.748Z,14.80
2022-11-12T13:39:14.437Z,14.80
2022-11-12T13:42:18.336Z,15.00
2022-11-12T13:45:05.642Z,14.90
2022-11-12T13:47:52.356Z,14.80
2022-11-12T13:50:40.655Z,14.70
2022-11-12T13:53:26.922Z,14.60
2022-11-12T13:56:13.137Z,14.50
2022-11-12T13:59:14.676Z,14.40
2022-11-12T14:02:03.569Z,14.30
2022-11-12T14:04:48.926Z,14.10
2022-11-12T14:07:48.066Z,14.10
2022-11-12T14:10:51.913Z,13.90
2022-11-12T14:14:00.341Z,13.90
2022-11-12T14:16:45.777Z,13.90
2022-11-12T14:19:42.950Z,13.80
2022-11-12T14:22:29.214Z,13.80
2022-11-12T14:25:17.002Z,13.80
2022-11-12T14:28:02.197Z,13.70
2022-11-12T14:30:47.738Z,13.60
2022-11-12T14:33:33.003Z,13.60
2022-11-12T14:36:18.962Z,13.60
2022-11-12T14:39:03.974Z,13.60
2022-11-12T14:41:50.762Z,13.60
2022-11-12T14:44:37.476Z,13.60
2022-11-12T14:47:24.073Z,13.40
2022-11-12T14:50:14.881Z,13.40
2022-11-12T14:53:03.986Z,13.40
2022-11-12T14:55:51.820Z,13.10
2022-11-12T14:58:37.094Z,13.00
2022-11-12T15:04:41.922Z,12.90
2022-11-12T15:07:26.918Z,12.90
2022-11-12T15:10:30.512Z,12.80
2022-11-12T15:13:17.543Z,12.70
2022-11-12T15:16:05.479Z,12.60
2022-11-12T15:19:01.503Z,12.50
2022-11-12T15:21:54.196Z,12.40
2022-11-12T15:24:41.148Z,12.10
2022-11-12T15:27:38.374Z,11.90
2022-11-12T15:30:23.832Z,11.80
2022-11-12T15:33:09.081Z,11.80
2022-11-12T15:35:58.512Z,11.60
2022-11-12T15:38:48.229Z,11.50
2022-11-12T15:41:33.789Z,11.50
2022-11-12T15:44:18.912Z,11.30
2022-11-12T15:47:04.051Z,11.10
2022-11-12T15:49:49.621Z,10.90
2022-11-12T15:52:35.217Z,10.80
2022-11-12T15:55:20.314Z,10.70
2022-11-12T15:58:06.841Z,10.50
2022-11-12T16:00:51.898Z,10.30
2022-11-12T16:03:37.200Z,10.20
2022-11-12T16:06:22.447Z,10.10
2022-11-12T16:09:07.586Z,9.90
2022-11-12T16:11:57.230Z,9.80
2022-11-12T16:14:42.309Z,9.70
2022-11-12T16:17:27.641Z,9.70
2022-11-12T16:20:16.922Z,9.60
2022-11-12T16:23:02.338Z,9.60
2022-11-12T16:25:47.717Z,9.50
2022-11-12T16:28:33.139Z,9.40
2022-11-12T16:31:19.532Z,9.30
2022-11-12T16:34:04.626Z,9.20
2022-11-12T16:36:50.153Z,9.00
2022-11-12T16:39:35.257Z,8.90
2022-11-12T16:42:20.406Z,8.80
2022-11-12T16:45:05.563Z,8.70
2022-11-12T16:47:51.950Z,8.70
2022-11-12T16:50:37.056Z,8.60
2022-11-12T16:53:22.142Z,8.40
2022-11-12T16:56:16.088Z,8.40
2022-11-12T16:59:03.447Z,8.20
2022-11-12T17:01:48.568Z,7.90
2022-11-12T17:06:09.842Z,7.90
2022-11-12T17:08:54.803Z,7.70
2022-11-12T17:11:40.279Z,7.70
2022-11-12T17:14:28.480Z,7.70
2022-11-12T17:17:14.038Z,7.70
2022-11-12T17:19:59.848Z,7.70
2022-11-12T17:22:45.505Z,7.60
2022-11-12T17:25:30.993Z,7.50
2022-11-12T17:28:16.098Z,7.50
2022-11-12T17:31:02.672Z,7.40
2022-11-12T17:33:49.617Z,7.30
2022-11-12T17:36:38.085Z,7.30
2022-11-12T17:39:27.336Z,7.20
2022-11-12T17:42:12.685Z,7.20
2022-11-12T17:44:57.884Z,7.10
2022-11-12T17:47:43.181Z,7.10
2022-11-12T17:50:28.285Z,7.00
2022-11-12T17:53:13.538Z,7.00
2022-11-12T17:55:59.203Z,6.90
2022-11-12T17:58:48.301Z,6.90
2022-11-12T18:01:33.906Z,6.80
2022-11-12T18:04:18.927Z,6.70
2022-11-12T18:07:04.518Z,6.60
2022-11-12T18:09:49.436Z,6.50
2022-11-12T18:12:34.576Z,6.50
2022-11-12T18:15:19.987Z,6.40
2022-11-12T18:18:05.528Z,6.40
2022-11-12T18:20:50.685Z,6.40
2022-11-12T18:23:36.925Z,6.40
2022-11-12T18:26:22.325Z,6.50
2022-11-12T18:29:07.477Z,6.50
2022-11-12T18:31:52.636Z,6.60
2022-11-12T18:34:41.632Z,6.60
2022-11-12T18:37:26.902Z,6.50
2022-11-12T18:40:12.052Z,6.50
2022-11-12T18:42:57.231Z,6.40
2022-11-12T18:45:42.489Z,6.30
2022-11-12T18:48:28.097Z,6.40
2022-11-12T18:51:14.261Z,6.30
2022-11-12T18:53:59.594Z,6.40
2022-11-12T18:56:44.803Z,6.50
2022-11-12T18:59:32.357Z,6.30
2022-11-12T19:02:17.566Z,6.30
2022-11-12T19:05:02.637Z,6.40
2022-11-12T19:07:48.066Z,6.30
2022-11-12T19:10:33.321Z,6.40
2022-11-12T19:13:18.513Z,6.50
2022-11-12T19:16:03.948Z,6.60
2022-11-12T19:18:49.744Z,6.70
2022-11-12T19:21:34.925Z,6.70
2022-11-12T19:24:20.190Z,6.80
2022-11-12T19:27:07.505Z,6.90
2022-11-12T19:29:52.692Z,6.80
2022-11-12T19:32:38.109Z,6.90
2022-11-12T19:35:23.116Z,6.90
2022-11-12T19:38:08.118Z,6.80
2022-11-12T19:40:53.246Z,6.60
2022-11-12T19:43:39.848Z,6.50
2022-11-12T19:46:25.134Z,6.50
2022-11-12T19:49:10.489Z,6.50
2022-11-12T19:51:56.072Z,6.40
2022-11-12T19:54:41.694Z,6.40
2022-11-12T19:57:28.914Z,6.50
2022-11-12T20:00:14.209Z,6.40
2022-11-12T20:02:59.957Z,6.50
2022-11-12T20:05:45.230Z,6.50
2022-11-12T20:08:30.744Z,6.50
2022-11-12T20:11:16.808Z,6.30
2022-11-12T20:14:02.518Z,6.30
2022-11-12T20:16:49.213Z,6.20
2022-11-12T20:19:34.492Z,6.30
2022-11-12T20:22:19.577Z,6.30
2022-11-12T20:25:04.948Z,6.40
2022-11-12T20:27:50.059Z,6.40
2022-11-12T20:30:35.728Z,6.40
2022-11-12T20:33:20.881Z,6.40
2022-11-12T20:36:07.229Z,6.20
2022-11-12T20:38:53.317Z,6.20
2022-11-12T20:41:38.288Z,6.20
2022-11-12T20:44:23.377Z,6.20
2022-11-12T20:47:08.507Z,6.20
2022-11-12T20:49:53.544Z,6.20
2022-11-12T20:52:38.848Z,6.30
2022-11-12T20:55:24.817Z,6.40
2022-11-12T20:58:10.326Z,6.40
2022-11-12T21:00:55.439Z,6.50
2022-11-12T21:03:41.650Z,6.40
2022-11-12T21:06:28.112Z,6.40
2022-11-12T21:09:13.135Z,6.40
2022-11-12T21:11:58.764Z,6.30
2022-11-12T21:14:50.018Z,6.20
2022-11-12T21:17:35.336Z,6.40
2022-11-12T21:20:20.864Z,6.30
2022-11-12T21:23:05.916Z,6.50
2022-11-12T21:25:51.212Z,6.60
2022-11-12T21:28:38.217Z,6.60
2022-11-12T21:31:25.026Z,6.70
2022-11-12T21:34:10.340Z,6.80
2022-11-12T21:36:55.485Z,6.90
2022-11-12T21:39:40.636Z,6.80
2022-11-12T21:42:26.163Z,6.70
2022-11-12T21:45:11.668Z,6.70
2022-11-12T21:47:57.096Z,6.60
2022-11-12T21:50:42.448Z,6.60
2022-11-12T21:53:27.377Z,6.60
2022-11-12T21:56:14.053Z,6.60
2022-11-12T21:59:00.459Z,6.60
2022-11-12T22:01:46.079Z,6.50
2022-11-12T22:04:31.181Z,6.40
2022-11-12T22:07:16.482Z,6.50
2022-11-12T22:10:01.825Z,6.60
2022-11-12T22:13:12.000Z,6.70
2022-11-12T22:15:52.574Z,6.70
2022-11-12T22:18:38.463Z,6.50
2022-11-12T22:21:24.979Z,6.40
2022-11-12T22:24:10.961Z,6.40
2022-11-12T22:26:56.075Z,6.30
2022-11-12T22:29:42.424Z,6.50
2022-11-12T22:32:27.819Z,6.50
2022-11-12T22:35:13.065Z,6.50
2022-11-12T22:37:58.046Z,6.60
2022-11-12T22:40:43.089Z,6.60
2022-11-12T22:43:28.157Z,6.60
2022-11-12T22:46:14.616Z,6.40
2022-11-12T22:48:59.773Z,6.50
2022-11-12T22:51:44.844Z,6.50
2022-11-12T22:54:29.878Z,6.60
2022-11-12T22:57:15.375Z,6.60
2022-11-12T23:00:00.104Z,6.50
2022-11-12T23:02:47.716Z,6.50
2022-11-12T23:05:33.291Z,6.40
2022-11-12T23:08:18.186Z,6.50
2022-11-12T23:11:04.772Z,6.50
2022-11-12T23:13:49.719Z,6.50
2022-11-12T23:16:35.753Z,6.30
2022-11-12T23:19:20.932Z,6.40
2022-11-12T23:22:08.155Z,6.30
2022-11-12T23:24:53.224Z,6.30
2022-11-12T23:27:38.525Z,6.30
2022-11-12T23:30:23.572Z,6.00
2022-11-12T23:33:08.649Z,5.90
2022-11-12T23:35:53.981Z,5.90
2022-11-12T23:38:39.350Z,5.80
2022-11-12T23:41:25.779Z,5.70
2022-11-12T23:44:11.079Z,5.70
2022-11-12T23:46:56.377Z,5.60
2022-11-12T23:49:41.314Z,5.50
2022-11-12T23:52:26.898Z,5.70
2022-11-12T23:55:11.945Z,5.60
2022-11-12T23:57:57.180Z,5.50
